Time;durP1;ratioP1;P1;durP2;ratioP2;P2;SDS_P1;SDS_P2;PMS_P1;PMS_P2;Temp;Humidity;BMP_temperature;BMP_pressure;BME280_temperature;BME280_humidity;BME280_pressure;Samples;Min_cycle;Max_cycle;Signal;HPM_P1;HPM_P2
2022/03/22 00:00:30;;;;;;;17.63;15.75;;;9.80;40.40;;;;;;5052795;28;20205;-57
2022/03/22 00:02:57;;;;;;;16.92;15.02;;;9.80;40.40;;;;;;5052845;28;20207;-57
2022/03/22 00:05:26;;;;;;;17.00;14.82;;;9.80;40.40;;;;;;5052807;28;20263;-56
2022/03/22 00:07:53;;;;;;;17.08;15.38;;;9.80;40.50;;;;;;5052739;28;20201;-57
2022/03/22 00:10:20;;;;;;;16.50;14.55;;;9.80;40.40;;;;;;5051394;28;20296;-57
2022/03/22 00:12:49;;;;;;;18.33;16.52;;;9.80;40.70;;;;;;5052605;28;20202;-57
2022/03/22 00:15:16;;;;;;;17.65;15.20;;;9.80;40.80;;;;;;5052690;28;20667;-57
2022/03/22 00:17:44;;;;;;;17.65;15.90;;;9.80;40.80;;;;;;5052309;28;20225;-57
2022/03/22 00:20:12;;;;;;;19.63;16.10;;;9.70;40.90;;;;;;5052567;28;20288;-57
2022/03/22 00:22:40;;;;;;;17.05;15.25;;;9.70;40.50;;;;;;5052346;28;20237;-57
2022/03/22 00:25:09;;;;;;;17.45;15.52;;;9.60;40.60;;;;;;5051402;28;20232;-57
2022/03/22 00:30:33;;;;;;;18.73;15.70;;;9.60;40.80;;;;;;5151918;27;20585;-55
2022/03/22 00:33:01;;;;;;;18.58;15.07;;;9.40;40.90;;;;;;5151588;27;20274;-58
2022/03/22 00:35:30;;;;;;;18.83;16.10;;;9.40;41.00;;;;;;5151727;27;20294;-58
2022/03/22 00:37:59;;;;;;;18.17;16.27;;;9.50;41.00;;;;;;5151835;27;20208;-58
2022/03/22 00:40:28;;;;;;;16.42;14.73;;;9.60;41.10;;;;;;5150398;27;20202;-58
2022/03/22 00:42:55;;;;;;;17.35;15.07;;;9.70;41.10;;;;;;5151667;27;20198;-58
2022/03/22 00:45:23;;;;;;;17.38;15.30;;;9.70;41.10;;;;;;5151571;27;20198;-58
2022/03/22 00:47:52;;;;;;;16.52;14.82;;;9.70;41.00;;;;;;5151233;27;20194;-58
2022/03/22 00:50:20;;;;;;;16.60;14.77;;;9.70;41.10;;;;;;5151489;27;20317;-58
2022/03/22 00:52:48;;;;;;;18.38;16.45;;;9.70;40.80;;;;;;5151511;27;20202;-58
2022/03/22 00:55:15;;;;;;;16.17;14.55;;;9.80;40.80;;;;;;5150137;27;20214;-58
2022/03/22 00:57:43;;;;;;;18.05;16.15;;;9.80;41.30;;;;;;5151366;27;20719;-58
2022/03/22 01:00:13;;;;;;;18.25;14.10;;;9.70;41.60;;;;;;5151355;27;20254;-58
2022/03/22 01:02:43;;;;;;;16.70;15.10;;;9.70;41.30;;;;;;5151272;27;20293;-58
2022/03/22 01:05:15;;;;;;;17.75;15.88;;;9.60;40.70;;;;;;5151208;27;20212;-58
2022/03/22 01:07:43;;;;;;;17.40;15.63;;;9.60;41.10;;;;;;5151205;27;20202;-58
2022/03/22 01:10:13;;;;;;;19.38;16.73;;;9.60;41.50;;;;;;5149843;27;20317;-58
2022/03/22 01:12:43;;;;;;;19.60;16.50;;;9.60;41.30;;;;;;5151037;27;20289;-58
2022/03/22 01:15:13;;;;;;;17.70;15.88;;;9.60;40.90;;;;;;5151177;27;20202;-58
2022/03/22 01:17:39;;;;;;;17.92;16.00;;;9.60;40.80;;;;;;5150970;27;20202;-58
2022/03/22 01:20:10;;;;;;;19.05;17.02;;;9.60;40.90;;;;;;5151024;27;20292;-58
2022/03/22 01:22:39;;;;;;;18.70;16.70;;;9.60;41.10;;;;;;5150998;27;20281;-57
2022/03/22 01:25:08;;;;;;;17.90;16.00;;;9.60;41.10;;;;;;5149525;27;20683;-58
2022/03/22 01:27:36;;;;;;;17.85;15.95;;;9.60;41.30;;;;;;5150845;27;20209;-58
2022/03/22 01:30:03;;;;;;;17.15;15.13;;;9.60;41.60;;;;;;5150430;27;20780;-57
2022/03/22 01:32:30;;;;;;;20.35;16.70;;;9.50;41.70;;;;;;5150611;27;20226;-58
2022/03/22 01:34:57;;;;;;;17.50;15.80;;;9.50;41.60;;;;;;5150645;27;20657;-58
2022/03/22 01:37:24;;;;;;;18.45;16.55;;;9.50;41.60;;;;;;5150548;27;20288;-57
2022/03/22 01:39:52;;;;;;;19.10;16.70;;;9.50;41.50;;;;;;5147026;27;20202;-57
2022/03/22 01:42:20;;;;;;;18.52;16.45;;;9.50;41.30;;;;;;5136604;27;20234;-57
2022/03/22 01:44:46;;;;;;;18.67;16.75;;;9.40;42.20;;;;;;5136593;27;20209;-57
2022/03/22 01:47:15;;;;;;;17.80;16.00;;;9.30;41.70;;;;;;5136534;27;20281;-57
2022/03/22 01:49:42;;;;;;;19.70;15.95;;;9.20;42.10;;;;;;5136318;27;20238;-57
2022/03/22 01:52:14;;;;;;;18.40;15.90;;;9.20;42.50;;;;;;5136495;27;20203;-57
2022/03/22 01:54:41;;;;;;;20.13;17.35;;;9.10;42.30;;;;;;5135085;27;20203;-58
2022/03/22 01:57:09;;;;;;;19.65;15.60;;;9.10;42.40;;;;;;5136395;27;20675;-57
2022/03/22 01:59:36;;;;;;;17.65;15.77;;;9.00;42.50;;;;;;5136243;27;20194;-58
2022/03/22 02:07:35;;;;;;;17.35;15.27;;;8.90;43.30;;;;;;5136316;27;20194;-58
2022/03/22 02:10:04;;;;;;;19.08;16.00;;;8.70;43.10;;;;;;5134671;27;20236;-57
2022/03/22 02:12:32;;;;;;;19.42;16.67;;;8.70;43.10;;;;;;5136047;27;20639;-58
2022/03/22 02:14:59;;;;;;;18.45;15.45;;;8.70;43.80;;;;;;5136004;27;20203;-58
2022/03/22 02:17:32;;;;;;;17.92;15.32;;;8.70;44.10;;;;;;5135909;27;20194;-57
2022/03/22 02:20:00;;;;;;;17.52;15.48;;;8.70;43.90;;;;;;5135956;27;20238;-57
2022/03/22 02:22:33;;;;;;;18.48;15.88;;;8.70;44.00;;;;;;5136008;27;20209;-57
2022/03/22 02:25:02;;;;;;;18.00;14.95;;;8.70;43.50;;;;;;5134619;27;20203;-57
2022/03/22 02:27:34;;;;;;;18.90;16.30;;;8.70;43.70;;;;;;5135801;27;20202;-57
2022/03/22 02:30:01;;;;;;;17.83;15.93;;;8.70;43.90;;;;;;5135311;27;20230;-57
2022/03/22 02:32:28;;;;;;;17.85;15.80;;;8.60;43.80;;;;;;5135818;27;20298;-57
2022/03/22 02:34:54;;;;;;;18.58;16.20;;;8.50;43.80;;;;;;5135766;27;20199;-57
2022/03/22 02:37:21;;;;;;;17.23;15.23;;;8.50;43.50;;;;;;5135600;27;20202;-57
2022/03/22 02:39:48;;;;;;;18.70;16.70;;;8.50;43.40;;;;;;5134215;27;20260;-57
2022/03/22 02:42:16;;;;;;;20.88;16.60;;;8.40;43.30;;;;;;5135488;27;20293;-57
2022/03/22 02:44:43;;;;;;;18.70;16.70;;;8.30;43.60;;;;;;5135399;27;20234;-57
2022/03/22 02:47:10;;;;;;;18.25;16.20;;;8.30;43.70;;;;;;5135487;27;20716;-56
2022/03/22 02:49:37;;;;;;;18.55;16.50;;;8.10;43.80;;;;;;5135129;27;20325;-56
2022/03/22 02:52:04;;;;;;;18.58;16.48;;;8.00;45.00;;;;;;5134439;27;20202;-56
2022/03/22 02:54:31;;;;;;;18.75;16.50;;;7.90;45.90;;;;;;5134169;27;20206;-56
2022/03/22 02:56:58;;;;;;;20.58;17.08;;;7.90;45.50;;;;;;5135274;27;20281;-56
2022/03/22 02:59:26;;;;;;;18.52;16.25;;;7.80;46.80;;;;;;5135231;27;20203;-57
2022/03/22 03:01:53;;;;;;;23.30;17.38;;;7.60;46.30;;;;;;5135194;27;20542;-57
2022/03/22 03:04:20;;;;;;;21.65;17.45;;;7.60;46.10;;;;;;5134977;27;20202;-57
2022/03/22 03:06:46;;;;;;;19.35;15.63;;;7.60;46.20;;;;;;5135147;27;20561;-56
2022/03/22 03:09:13;;;;;;;18.98;16.95;;;7.40;46.50;;;;;;5133459;27;20218;-56
2022/03/22 03:11:40;;;;;;;21.30;17.15;;;7.30;47.40;;;;;;5134570;27;20546;-56
2022/03/22 03:16:53;;;;;;;20.85;16.65;;;7.00;48.20;;;;;;5134805;27;20676;-56
2022/03/22 03:19:20;;;;;;;21.60;16.42;;;6.80;49.90;;;;;;5134457;27;20661;-57
2022/03/22 03:21:46;;;;;;;22.63;17.52;;;6.50;50.90;;;;;;5134593;27;20202;-57
2022/03/22 03:24:13;;;;;;;21.90;17.45;;;6.20;51.70;;;;;;5133225;27;20290;-57
2022/03/22 03:26:40;;;;;;;20.77;17.27;;;5.90;52.00;;;;;;5134558;27;20209;-55
2022/03/22 03:29:09;;;;;;;22.40;17.70;;;5.80;53.20;;;;;;5134301;27;20230;-57
2022/03/22 03:31:36;;;;;;;19.73;17.35;;;5.60;54.40;;;;;;5134462;27;20199;-57
2022/03/22 03:34:04;;;;;;;19.25;17.13;;;5.40;54.80;;;;;;5134304;27;20683;-57
2022/03/22 03:36:31;;;;;;;22.65;17.77;;;5.30;55.00;;;;;;5134383;27;20654;-57
2022/03/22 03:38:59;;;;;;;21.90;17.40;;;5.20;55.40;;;;;;5133001;27;20241;-57
2022/03/22 03:47:07;;;;;;;18.35;16.05;;;5.30;55.30;;;;;;5133982;27;20187;-57
2022/03/22 03:49:37;;;;;;;20.70;17.50;;;5.30;54.90;;;;;;5133875;27;20544;-57
2022/03/22 03:52:06;;;;;;;21.30;17.10;;;5.40;55.00;;;;;;5134076;27;20205;-56
2022/03/22 03:54:33;;;;;;;18.85;16.88;;;5.50;54.90;;;;;;5132697;27;20221;-56
2022/03/22 03:56:59;;;;;;;17.55;15.75;;;5.60;54.50;;;;;;5134069;27;20352;-56
2022/03/22 03:59:27;;;;;;;19.77;16.60;;;5.70;54.30;;;;;;5134063;27;20222;-56
2022/03/22 04:01:54;;;;;;;19.10;16.05;;;5.70;54.40;;;;;;5133774;27;20293;-56
2022/03/22 04:04:21;;;;;;;18.58;15.75;;;5.60;54.40;;;;;;5133532;27;20205;-56
2022/03/22 04:06:49;;;;;;;18.67;16.77;;;5.70;54.70;;;;;;5133756;27;20205;-56
2022/03/22 04:09:16;;;;;;;21.52;17.67;;;5.80;54.50;;;;;;5132421;27;20206;-56
2022/03/22 04:11:43;;;;;;;21.30;14.05;;;5.70;54.50;;;;;;5133812;27;20240;-56
2022/03/22 04:14:11;;;;;;;20.95;16.02;;;5.80;54.10;;;;;;5133737;27;20593;-56
2022/03/22 04:16:38;;;;;;;18.35;16.38;;;5.90;54.20;;;;;;5133849;27;20263;-56
2022/03/22 04:19:05;;;;;;;20.42;16.60;;;6.10;53.90;;;;;;5133577;27;20297;-57
2022/03/22 04:21:34;;;;;;;19.33;17.33;;;6.30;53.40;;;;;;5133782;27;20201;-57
2022/03/22 04:24:02;;;;;;;21.05;18.80;;;6.20;53.10;;;;;;5132436;27;20250;-57
2022/03/22 04:26:29;;;;;;;23.00;18.00;;;6.30;52.70;;;;;;5133532;27;20213;-57
2022/03/22 04:34:25;;;;;;;19.60;17.23;;;6.70;52.10;;;;;;5133473;27;20503;-57
2022/03/22 04:36:58;;;;;;;22.20;17.48;;;6.90;51.80;;;;;;5133592;27;20205;-57
2022/03/22 04:39:28;;;;;;;20.40;17.13;;;7.00;50.60;;;;;;5132067;27;20294;-57
2022/03/22 04:41:56;;;;;;;20.23;16.73;;;7.10;50.30;;;;;;5133441;27;20203;-57
2022/03/22 04:44:24;;;;;;;19.90;17.52;;;7.10;50.50;;;;;;5133532;27;20210;-57
2022/03/22 04:46:51;;;;;;;20.38;18.35;;;7.20;51.00;;;;;;5133413;27;20198;-57
2022/03/22 04:49:18;;;;;;;20.70;17.60;;;7.20;50.80;;;;;;5133137;27;20306;-57
2022/03/22 04:57:16;;;;;;;21.33;17.80;;;7.20;50.20;;;;;;5133377;27;20655;-57
2022/03/22 04:59:43;;;;;;;21.40;17.38;;;7.10;50.30;;;;;;5133524;27;20207;-57
2022/03/22 05:02:10;;;;;;;21.90;17.77;;;7.10;50.40;;;;;;5133275;27;20271;-57
2022/03/22 05:04:37;;;;;;;22.20;17.48;;;7.10;50.40;;;;;;5133270;27;20230;-57
2022/03/22 05:07:05;;;;;;;21.33;16.10;;;6.80;51.50;;;;;;5133294;27;20209;-57
2022/03/22 05:09:33;;;;;;;20.25;18.05;;;6.60;52.50;;;;;;5131809;27;20206;-57
2022/03/22 05:12:01;;;;;;;22.13;16.35;;;6.60;52.20;;;;;;5133275;27;20569;-57
2022/03/22 05:14:28;;;;;;;19.98;17.58;;;6.70;52.30;;;;;;5132842;27;20205;-57
2022/03/22 05:16:56;;;;;;;21.20;16.98;;;6.70;51.80;;;;;;5136120;27;20209;-57
2022/03/22 05:19:24;;;;;;;21.20;17.42;;;6.70;51.90;;;;;;5136907;27;20206;-57
2022/03/22 05:21:50;;;;;;;21.17;16.63;;;6.80;52.60;;;;;;5137087;27;20550;-57
2022/03/22 05:24:18;;;;;;;20.45;15.85;;;6.80;52.00;;;;;;5135564;27;20732;-57
2022/03/22 05:26:47;;;;;;;22.17;16.70;;;6.80;52.10;;;;;;5136759;27;20676;-57
2022/03/22 05:29:14;;;;;;;18.67;16.15;;;6.90;52.60;;;;;;5136487;27;20713;-57
2022/03/22 05:31:41;;;;;;;19.63;16.90;;;6.80;52.30;;;;;;5136602;27;20708;-57
2022/03/22 05:34:07;;;;;;;18.30;16.02;;;6.70;51.20;;;;;;5136554;27;20290;-57
2022/03/22 05:36:35;;;;;;;21.52;17.33;;;6.70;52.50;;;;;;5136707;27;20199;-57
2022/03/22 05:39:02;;;;;;;19.40;16.33;;;6.50;53.50;;;;;;5135242;27;20202;-57
2022/03/22 05:41:28;;;;;;;23.20;18.05;;;6.20;54.20;;;;;;5136460;27;20293;-57
2022/03/22 05:43:57;;;;;;;23.40;17.30;;;6.10;54.00;;;;;;5136373;27;20244;-57
2022/03/22 05:46:23;;;;;;;23.25;19.48;;;6.30;53.50;;;;;;5136506;27;20213;-57
2022/03/22 05:48:50;;;;;;;20.83;18.33;;;6.40;52.60;;;;;;5136250;27;20209;-57
2022/03/22 05:51:17;;;;;;;23.77;18.80;;;6.40;52.00;;;;;;5136354;27;20322;-57
2022/03/22 05:53:45;;;;;;;23.27;18.58;;;6.40;51.70;;;;;;5135013;27;20235;-57
2022/03/22 05:56:12;;;;;;;23.25;18.17;;;6.30;51.90;;;;;;5136147;27;20198;-57
2022/03/22 05:58:40;;;;;;;21.98;17.88;;;6.40;52.90;;;;;;5136012;27;20281;-57
2022/03/22 06:01:08;;;;;;;23.00;19.00;;;6.40;53.00;;;;;;5136203;27;20199;-57
2022/03/22 06:03:35;;;;;;;23.08;20.25;;;6.30;52.30;;;;;;5136079;27;20199;-57
2022/03/22 06:06:02;;;;;;;25.48;18.85;;;6.30;52.10;;;;;;5136085;27;20293;-57
2022/03/22 06:08:30;;;;;;;25.63;18.60;;;6.30;52.10;;;;;;5136062;27;20217;-57
2022/03/22 06:10:57;;;;;;;27.33;18.30;;;6.30;53.20;;;;;;5134539;27;20234;-57
2022/03/22 06:13:24;;;;;;;21.73;18.00;;;6.20;52.80;;;;;;5135906;27;20263;-57
2022/03/22 06:15:52;;;;;;;22.13;17.10;;;6.20;52.80;;;;;;5135726;27;20199;-57
2022/03/22 06:18:20;;;;;;;23.63;17.85;;;6.00;53.30;;;;;;5135629;27;20207;-57
2022/03/22 06:20:47;;;;;;;19.70;17.60;;;6.00;53.40;;;;;;5135852;27;20198;-57
2022/03/22 06:23:15;;;;;;;23.17;17.55;;;6.00;53.40;;;;;;5135657;27;20198;-57
2022/03/22 06:25:43;;;;;;;23.85;18.33;;;6.10;53.60;;;;;;5134209;27;20234;-57
2022/03/22 06:28:10;;;;;;;25.58;18.33;;;6.00;53.60;;;;;;5135318;27;20310;-57
2022/03/22 06:30:38;;;;;;;24.63;18.75;;;6.10;53.60;;;;;;5135377;27;20765;-57
2022/03/22 06:33:10;;;;;;;23.42;18.83;;;6.10;54.10;;;;;;5135742;27;20238;-57
2022/03/22 06:35:38;;;;;;;20.65;16.70;;;6.20;53.50;;;;;;5135329;27;20202;-57
2022/03/22 06:38:06;;;;;;;22.90;19.58;;;6.20;54.30;;;;;;5135376;27;20203;-57
2022/03/22 06:40:34;;;;;;;24.02;17.65;;;6.30;54.20;;;;;;5134378;27;20202;-57
2022/03/22 06:43:01;;;;;;;23.85;19.27;;;6.30;54.00;;;;;;5135345;27;20206;-57
2022/03/22 06:45:28;;;;;;;26.25;20.13;;;6.30;54.20;;;;;;5135530;27;20209;-57
2022/03/22 06:47:55;;;;;;;34.83;24.17;;;6.30;53.80;;;;;;5135136;27;20285;-57
2022/03/22 06:50:24;;;;;;;33.35;19.75;;;6.30;53.90;;;;;;5135101;27;20260;-57
2022/03/22 06:52:53;;;;;;;23.67;20.20;;;6.40;53.60;;;;;;5135190;27;20204;-57
2022/03/22 06:55:22;;;;;;;20.85;18.30;;;6.50;53.60;;;;;;5133714;27;20306;-56
2022/03/22 06:57:50;;;;;;;25.75;20.05;;;6.40;54.10;;;;;;5134937;27;20604;-57
2022/03/22 07:00:19;;;;;;;21.40;19.08;;;6.40;54.10;;;;;;5135165;27;20206;-57
2022/03/22 07:02:47;;;;;;;21.38;17.08;;;6.40;54.30;;;;;;5135161;27;20214;-57
2022/03/22 07:05:13;;;;;;;26.10;19.50;;;6.40;54.50;;;;;;5134850;27;20289;-57
2022/03/22 07:07:41;;;;;;;21.02;18.92;;;6.50;56.10;;;;;;5134926;27;20545;-57
2022/03/22 07:10:11;;;;;;;27.67;18.30;;;6.70;55.40;;;;;;5133431;27;20199;-57
2022/03/22 07:12:48;;;;;;;21.52;17.98;;;6.70;54.20;;;;;;5134486;27;20652;-57
2022/03/22 07:15:15;;;;;;;22.95;18.05;;;6.80;53.60;;;;;;5134868;27;20202;-57
2022/03/22 07:17:41;;;;;;;21.38;19.27;;;6.80;53.50;;;;;;5134528;27;20230;-57
2022/03/22 07:20:10;;;;;;;20.90;15.80;;;7.00;54.10;;;;;;5134376;27;20203;-57
2022/03/22 07:22:37;;;;;;;21.33;17.23;;;7.10;53.60;;;;;;5134628;27;20663;-57
2022/03/22 07:25:04;;;;;;;22.80;18.65;;;7.10;53.50;;;;;;5133252;27;20675;-57
2022/03/22 07:27:32;;;;;;;19.88;17.02;;;7.20;53.30;;;;;;5134321;27;20309;-57
2022/03/22 07:30:00;;;;;;;24.77;18.95;;;7.40;53.10;;;;;;5134286;27;20270;-57
2022/03/22 07:32:26;;;;;;;20.15;17.60;;;7.50;52.30;;;;;;5134132;27;20237;-57
2022/03/22 07:34:53;;;;;;;28.90;19.60;;;7.40;51.30;;;;;;5134303;27;20206;-57
2022/03/22 07:37:20;;;;;;;19.73;17.70;;;7.50;51.30;;;;;;5134156;27;20237;-57
2022/03/22 07:39:47;;;;;;;22.27;19.45;;;7.60;51.10;;;;;;5132359;27;20575;-57
2022/03/22 07:42:14;;;;;;;24.23;19.60;;;7.60;51.70;;;;;;5134052;27;20689;-57
2022/03/22 07:44:42;;;;;;;21.83;17.05;;;7.70;51.60;;;;;;5134312;27;20209;-57
2022/03/22 07:47:09;;;;;;;24.17;19.15;;;7.60;52.00;;;;;;5134025;27;20297;-57
2022/03/22 07:55:06;;;;;;;24.55;19.58;;;7.60;53.40;;;;;;5132755;27;20209;-57
2022/03/22 07:57:32;;;;;;;21.25;19.00;;;7.60;52.80;;;;;;5134080;27;20198;-56
2022/03/22 08:00:01;;;;;;;24.67;18.60;;;7.60;53.40;;;;;;5134033;27;20289;-57
2022/03/22 08:02:27;;;;;;;27.70;20.92;;;7.60;53.30;;;;;;5133835;27;20202;-57
2022/03/22 08:04:54;;;;;;;22.25;19.92;;;7.70;53.50;;;;;;5133705;27;20203;-56
2022/03/22 08:07:21;;;;;;;21.98;17.80;;;7.70;53.50;;;;;;5133727;27;20203;-57
2022/03/22 08:09:48;;;;;;;24.52;20.38;;;7.80;53.70;;;;;;5132414;27;20233;-57
2022/03/22 08:12:15;;;;;;;27.10;20.05;;;7.90;53.10;;;;;;5133686;27;20280;-56
2022/03/22 08:14:42;;;;;;;23.40;19.52;;;8.00;53.30;;;;;;5133858;27;20622;-57
2022/03/22 08:17:10;;;;;;;26.00;21.10;;;7.90;53.60;;;;;;5133686;27;20234;-56
2022/03/22 08:19:37;;;;;;;24.25;21.20;;;7.90;54.20;;;;;;5133428;27;20199;-56
2022/03/22 08:22:05;;;;;;;22.85;20.25;;;8.10;52.90;;;;;;5133811;27;20203;-57
2022/03/22 08:24:32;;;;;;;22.45;20.10;;;8.20;52.40;;;;;;5132464;27;20207;-57
2022/03/22 08:26:59;;;;;;;25.73;20.83;;;8.40;51.60;;;;;;5133654;27;20222;-56
2022/03/22 08:29:26;;;;;;;23.30;20.00;;;8.50;51.10;;;;;;5133611;27;20659;-57
2022/03/22 08:31:53;;;;;;;22.70;20.30;;;8.50;50.80;;;;;;5133624;27;20230;-56
2022/03/22 08:34:21;;;;;;;24.98;21.30;;;8.60;50.70;;;;;;5133643;27;20202;-56
2022/03/22 08:36:48;;;;;;;28.77;22.20;;;8.60;50.60;;;;;;5133760;27;20559;-57
2022/03/22 08:39:15;;;;;;;24.90;19.55;;;8.70;50.60;;;;;;5132209;27;20297;-57
2022/03/22 08:41:41;;;;;;;22.90;20.40;;;8.90;51.40;;;;;;5133498;27;20204;-56
2022/03/22 08:44:08;;;;;;;21.23;18.90;;;9.00;50.30;;;;;;5133420;27;20209;-56
2022/03/22 08:46:37;;;;;;;26.17;21.77;;;9.20;50.60;;;;;;5133616;27;20226;-57
2022/03/22 08:49:04;;;;;;;25.98;19.98;;;9.20;50.10;;;;;;5133379;27;20198;-57
2022/03/22 08:51:33;;;;;;;23.35;20.83;;;9.40;50.10;;;;;;5136072;27;20696;-57
2022/03/22 08:53:59;;;;;;;29.63;22.23;;;9.50;49.40;;;;;;5136275;27;20317;-57
2022/03/22 08:56:26;;;;;;;23.45;18.85;;;9.60;49.70;;;;;;5137505;27;20636;-57
2022/03/22 08:58:53;;;;;;;23.42;19.75;;;9.70;49.90;;;;;;5137599;27;20245;-57
2022/03/22 09:01:25;;;;;;;26.45;21.75;;;9.90;49.70;;;;;;5137465;27;20209;-57
2022/03/22 09:06:34;;;;;;;24.60;21.20;;;10.10;49.50;;;;;;5137060;27;20285;-56
2022/03/22 09:09:00;;;;;;;25.10;18.80;;;10.00;49.00;;;;;;5136143;27;20233;-57
2022/03/22 09:11:27;;;;;;;23.23;20.92;;;10.10;49.10;;;;;;5137196;27;20719;-56
2022/03/22 09:13:55;;;;;;;25.40;22.15;;;10.30;48.90;;;;;;5137204;27;20636;-56
2022/03/22 09:16:21;;;;;;;23.38;20.98;;;10.40;48.90;;;;;;5137303;27;20202;-56
2022/03/22 09:18:48;;;;;;;23.58;21.08;;;10.50;46.60;;;;;;5136843;27;20298;-57
2022/03/22 09:21:16;;;;;;;22.92;19.98;;;10.40;44.80;;;;;;5137108;27;20198;-57
2022/03/22 09:23:44;;;;;;;27.52;22.92;;;10.40;46.80;;;;;;5135806;27;20195;-56
2022/03/22 09:26:11;;;;;;;24.92;22.23;;;10.60;46.50;;;;;;5136950;27;20218;-58
2022/03/22 09:28:38;;;;;;;22.85;18.77;;;10.70;46.70;;;;;;5136922;27;20226;-58
2022/03/22 09:31:06;;;;;;;23.63;21.08;;;10.90;46.00;;;;;;5137014;27;20325;-58
2022/03/22 09:33:33;;;;;;;27.48;21.92;;;10.90;46.50;;;;;;5136969;27;20202;-58
2022/03/22 09:36:01;;;;;;;22.70;20.30;;;10.90;46.50;;;;;;5136693;27;20568;-58
2022/03/22 09:38:29;;;;;;;23.13;20.30;;;11.10;47.40;;;;;;5136771;27;20195;-58
2022/03/22 09:40:59;;;;;;;24.75;22.15;;;11.40;47.60;;;;;;5135545;27;20202;-59
2022/03/22 09:43:29;;;;;;;26.80;23.55;;;11.70;47.50;;;;;;5136762;27;20199;-64
2022/03/22 09:45:58;;;;;;;27.92;22.13;;;12.00;47.50;;;;;;5136578;27;20272;-59
2022/03/22 09:48:31;;;;;;;26.33;22.60;;;12.20;47.20;;;;;;5136771;27;20249;-59
2022/03/22 09:53:54;;;;;;;29.85;22.85;;;12.40;47.20;;;;;;5092179;28;20302;-58
2022/03/22 09:56:25;;;;;;;25.65;23.00;;;12.60;46.90;;;;;;5126079;27;20198;-58
2022/03/22 09:58:52;;;;;;;28.83;22.55;;;12.70;47.00;;;;;;5136436;27;20709;-59
2022/03/22 10:01:21;;;;;;;27.25;23.40;;;12.80;46.50;;;;;;5135824;27;20229;-59
2022/03/22 10:03:56;;;;;;;26.85;24.05;;;12.90;46.70;;;;;;5136489;27;20194;-59
2022/03/22 10:06:23;;;;;;;25.75;21.67;;;12.90;46.30;;;;;;5136212;27;20198;-59
2022/03/22 10:08:51;;;;;;;25.85;23.25;;;13.00;46.50;;;;;;5134867;27;20213;-59
2022/03/22 10:11:18;;;;;;;28.73;25.63;;;13.10;46.70;;;;;;5136153;27;20222;-59
2022/03/22 10:13:54;;;;;;;25.90;23.13;;;13.20;46.50;;;;;;5136185;27;20198;-59
2022/03/22 10:16:21;;;;;;;29.90;24.27;;;13.30;46.20;;;;;;5136195;27;20281;-60
2022/03/22 10:18:48;;;;;;;26.60;23.30;;;13.40;46.00;;;;;;5136184;27;20203;-60
2022/03/22 10:21:15;;;;;;;27.80;23.90;;;13.50;45.60;;;;;;5135968;27;20198;-59
2022/03/22 10:23:52;;;;;;;27.30;24.05;;;13.60;45.70;;;;;;5134722;27;20213;-60
2022/03/22 10:26:19;;;;;;;27.08;23.55;;;13.60;45.60;;;;;;5135815;27;20218;-60
2022/03/22 10:28:51;;;;;;;28.58;21.85;;;13.70;45.90;;;;;;5135826;27;20226;-60
2022/03/22 10:31:20;;;;;;;24.15;19.88;;;13.90;45.80;;;;;;5135756;27;20210;-59
2022/03/22 10:33:51;;;;;;;25.50;22.70;;;14.00;44.50;;;;;;5135846;27;20194;-60
2022/03/22 10:36:21;;;;;;;26.73;22.17;;;14.00;44.40;;;;;;5135621;27;20203;-60
2022/03/22 10:38:56;;;;;;;26.30;23.10;;;14.10;44.60;;;;;;5134424;27;20248;-59
2022/03/22 10:41:28;;;;;;;24.35;21.95;;;14.20;44.40;;;;;;5135616;27;20293;-60
2022/03/22 10:44:06;;;;;;;25.65;22.95;;;14.30;44.10;;;;;;5135692;27;20198;-59
2022/03/22 10:46:36;;;;;;;29.60;24.35;;;14.40;44.40;;;;;;5135404;27;20203;-60
2022/03/22 10:49:06;;;;;;;29.20;21.80;;;14.50;43.70;;;;;;5135438;27;20206;-60
2022/03/22 10:51:34;;;;;;;25.40;22.00;;;14.70;43.80;;;;;;5135446;27;20684;-60
2022/03/22 10:54:01;;;;;;;27.48;23.42;;;14.80;43.30;;;;;;5134153;27;20722;-57
2022/03/22 10:56:28;;;;;;;27.80;23.95;;;14.80;43.10;;;;;;5135294;27;20202;-58
2022/03/22 10:58:56;;;;;;;30.75;20.88;;;14.80;43.10;;;;;;5135107;27;20199;-58
2022/03/22 11:01:24;;;;;;;25.45;22.75;;;15.00;43.10;;;;;;5135129;27;20199;-58
2022/03/22 11:03:57;;;;;;;27.30;22.58;;;15.00;43.40;;;;;;5135309;27;20209;-58
2022/03/22 11:06:29;;;;;;;32.85;24.90;;;15.20;43.10;;;;;;5134954;27;20207;-57
2022/03/22 11:08:56;;;;;;;27.87;24.70;;;15.20;42.20;;;;;;5133742;27;20289;-58
2022/03/22 11:11:24;;;;;;;27.83;24.42;;;15.40;42.60;;;;;;5134735;27;20450;-58
2022/03/22 11:13:51;;;;;;;26.27;23.47;;;15.50;41.20;;;;;;5133967;27;20297;-58
2022/03/22 11:16:20;;;;;;;31.30;22.37;;;15.60;41.10;;;;;;5134441;27;20452;-58
2022/03/22 11:18:49;;;;;;;26.10;22.77;;;15.80;41.30;;;;;;5134609;27;20459;-57
2022/03/22 11:21:20;;;;;;;24.40;20.37;;;16.00;39.80;;;;;;5134368;27;20444;-59
2022/03/22 11:23:47;;;;;;;27.00;22.30;;;16.60;39.90;;;;;;5133510;27;20886;-58
2022/03/22 11:26:17;;;;;;;26.17;23.47;;;18.20;38.50;;;;;;5134596;27;20464;-58
2022/03/22 11:28:45;;;;;;;25.27;22.53;;;20.10;35.00;;;;;;5134464;27;20472;-58
2022/03/22 11:31:16;;;;;;;27.13;24.23;;;22.00;32.10;;;;;;5134546;27;20521;-58
2022/03/22 11:36:41;;;;;;;28.27;25.30;;;25.30;29.00;;;;;;5134182;27;20620;-58
2022/03/22 11:39:08;;;;;;;25.53;21.63;;;26.60;27.50;;;;;;5133057;27;20444;-58
2022/03/22 11:44:27;;;;;;;28.40;24.20;;;27.10;24.60;;;;;;5134076;27;20938;-58
2022/03/22 11:47:04;;;;;;;27.87;25.17;;;27.40;26.10;;;;;;5133955;27;20444;-56
2022/03/22 11:49:31;;;;;;;26.57;23.40;;;27.50;25.50;;;;;;5134040;27;20535;-59
2022/03/22 11:52:11;;;;;;;27.70;24.87;;;27.50;24.50;;;;;;5133827;27;20524;-58
2022/03/22 11:54:38;;;;;;;26.37;23.87;;;27.30;24.20;;;;;;5132654;27;20447;-58
2022/03/22 11:57:07;;;;;;;25.83;23.23;;;26.80;25.20;;;;;;5133686;27;20452;-58
2022/03/22 11:59:41;;;;;;;25.47;22.97;;;26.70;24.40;;;;;;5133774;27;20444;-58
2022/03/22 12:02:15;;;;;;;26.67;23.93;;;26.50;24.20;;;;;;5133916;27;20451;-58
2022/03/22 12:04:44;;;;;;;26.03;23.53;;;26.20;24.10;;;;;;5133741;27;20452;-58
2022/03/22 12:07:13;;;;;;;23.00;20.70;;;25.80;24.60;;;;;;5133837;27;20543;-58
2022/03/22 12:09:42;;;;;;;26.13;23.40;;;25.50;25.30;;;;;;5132490;27;20469;-58
2022/03/22 12:12:11;;;;;;;27.00;23.30;;;25.10;24.70;;;;;;5133565;27;20499;-59
2022/03/22 12:14:39;;;;;;;24.13;21.70;;;25.00;25.00;;;;;;5133743;27;20451;-58
2022/03/22 12:17:09;;;;;;;27.80;22.87;;;24.90;23.60;;;;;;5133880;27;20478;-60
2022/03/22 12:19:36;;;;;;;24.47;21.90;;;24.40;24.20;;;;;;5133547;27;20473;-58
2022/03/22 12:22:05;;;;;;;26.73;23.90;;;23.40;25.10;;;;;;5133802;27;20509;-58
2022/03/22 12:24:34;;;;;;;25.67;23.03;;;22.90;25.90;;;;;;5132044;27;20503;-58
2022/03/22 12:27:03;;;;;;;24.40;22.00;;;22.60;26.70;;;;;;5133614;27;21015;-58
2022/03/22 12:29:31;;;;;;;26.87;24.00;;;22.20;26.30;;;;;;5133447;27;20840;-58
2022/03/22 12:32:06;;;;;;;26.50;23.87;;;21.90;26.50;;;;;;5133591;27;20443;-58
2022/03/22 12:34:36;;;;;;;26.20;23.50;;;21.70;27.00;;;;;;5133402;27;20845;-59
2022/03/22 12:37:03;;;;;;;25.90;23.17;;;21.40;27.10;;;;;;5133435;27;20444;-58
2022/03/22 12:39:30;;;;;;;23.93;21.53;;;21.30;27.00;;;;;;5132348;27;20788;-58
2022/03/22 12:41:59;;;;;;;25.70;22.63;;;21.10;27.90;;;;;;5133626;27;20542;-58
2022/03/22 12:44:25;;;;;;;27.07;23.70;;;21.10;27.70;;;;;;5133492;27;20532;-58
2022/03/22 12:46:53;;;;;;;25.60;23.10;;;20.90;28.50;;;;;;5133466;27;20455;-58
2022/03/22 12:49:21;;;;;;;26.53;23.33;;;20.80;28.10;;;;;;5133390;27;20458;-58
2022/03/22 12:51:48;;;;;;;23.87;21.43;;;20.70;28.20;;;;;;5133294;27;20806;-58
2022/03/22 12:54:17;;;;;;;27.00;24.10;;;20.80;28.20;;;;;;5132181;27;20949;-60
2022/03/22 12:56:47;;;;;;;25.60;22.83;;;20.80;28.70;;;;;;5133374;27;20448;-58
2022/03/22 12:59:25;;;;;;;26.63;22.47;;;20.90;28.70;;;;;;5133344;27;20479;-58
2022/03/22 13:01:58;;;;;;;26.37;23.77;;;20.90;28.90;;;;;;5133452;27;20444;-58
2022/03/22 13:04:26;;;;;;;25.87;23.20;;;20.90;28.80;;;;;;5133253;27;20456;-58
2022/03/22 13:06:57;;;;;;;27.80;22.80;;;20.90;28.70;;;;;;5133111;27;20449;-58
2022/03/22 13:12:11;;;;;;;25.47;22.93;;;20.90;28.60;;;;;;5133148;28;20419;-58
2022/03/22 13:17:27;;;;;;;27.73;24.90;;;20.70;29.30;;;;;;5133306;27;20548;-57
2022/03/22 13:19:54;;;;;;;25.40;22.70;;;20.80;29.00;;;;;;5132946;27;20455;-58
2022/03/22 13:22:21;;;;;;;25.73;23.13;;;20.90;28.90;;;;;;5133190;27;20444;-59
2022/03/22 13:24:48;;;;;;;25.07;22.50;;;20.70;28.80;;;;;;5131836;27;20460;-58
2022/03/22 13:27:17;;;;;;;25.53;23.10;;;20.80;28.90;;;;;;5133015;27;20955;-58